createdAt,value
2018-02-11T08:09:40.358Z,2.10
2018-02-11T08:12:11.404Z,2.30
2018-02-11T08:18:03.944Z,2.10
2018-02-11T08:20:41.972Z,2.10
2018-02-11T08:23:13.344Z,1.70
2018-02-11T08:25:48.066Z,1.70
2018-02-11T08:28:18.941Z,2.50
2018-02-11T08:30:50.066Z,2.50
2018-02-11T08:33:19.957Z,2.50
2018-02-11T08:35:49.522Z,2.40
2018-02-11T08:38:19.768Z,2.60
2018-02-11T08:40:49.424Z,2.70
2018-02-11T08:43:18.885Z,2.70
2018-02-11T08:45:48.340Z,2.50
2018-02-11T08:48:19.182Z,2.90
2018-02-11T08:54:27.103Z,2.40
2018-02-11T08:56:57.856Z,2.60
2018-02-11T08:59:28.082Z,2.50
2018-02-11T09:02:00.094Z,2.20
2018-02-11T09:04:29.530Z,2.20
2018-02-11T09:06:59.035Z,2.80
2018-02-11T09:09:28.456Z,2.90
2018-02-11T09:11:57.964Z,2.60
2018-02-11T09:14:27.465Z,3.30
2018-02-11T09:17:12.165Z,3.70
2018-02-11T12:29:24.102Z,5.40
2018-02-11T12:31:53.521Z,5.90
2018-02-11T12:34:24.007Z,6.60
2018-02-11T12:36:53.488Z,6.60
2018-02-11T12:39:23.101Z,6.40
2018-02-11T12:41:55.810Z,6.50
2018-02-11T12:44:26.751Z,6.20
2018-02-11T12:46:56.563Z,6.10
2018-02-11T12:49:26.925Z,6.30
2018-02-11T12:51:57.161Z,6.30
2018-02-11T12:54:26.728Z,6.30
2018-02-11T12:56:56.203Z,6.20
2018-02-11T12:59:25.739Z,6.30
2018-02-11T13:01:55.354Z,6.50
2018-02-11T13:04:24.871Z,6.10
2018-02-11T13:07:23.315Z,6.50
2018-02-11T13:14:01.618Z,6.70
2018-02-11T13:16:31.227Z,7.00
2018-02-11T13:19:00.608Z,6.80
2018-02-11T13:21:30.306Z,6.40
2018-02-11T13:24:00.010Z,6.20
2018-02-11T13:26:30.329Z,5.70
2018-02-11T13:28:59.852Z,5.70
2018-02-11T13:31:30.042Z,6.10
2018-02-11T13:34:00.388Z,5.80
2018-02-11T13:36:30.247Z,5.80
2018-02-11T13:39:00.542Z,6.50
2018-02-11T13:41:30.238Z,6.50
2018-02-11T13:43:59.672Z,6.80
2018-02-11T13:46:29.290Z,6.40
2018-02-11T13:48:59.296Z,6.80
2018-02-11T13:51:29.071Z,6.50
2018-02-11T13:53:58.817Z,6.90
2018-02-11T14:00:13.252Z,6.40
2018-02-11T14:02:43.740Z,6.00
2018-02-11T14:08:45.124Z,7.30
2018-02-11T14:11:17.219Z,6.90
2018-02-11T14:13:46.762Z,6.60
